Time;durP1;ratioP1;P1;durP2;ratioP2;P2;SDS_P1;SDS_P2;PMS_P1;PMS_P2;Temp;Humidity;BMP_temperature;BMP_pressure;BME280_temperature;BME280_humidity;BME280_pressure;Samples;Min_cycle;Max_cycle;Signal;HPM_P1;HPM_P2
2024/04/03 00:01:11;;;;;;;4.95;3.53;;;9.00;99.90;;;;;;5078826;28;20539;-44
2024/04/03 00:03:38;;;;;;;8.38;4.10;;;9.00;99.90;;;;;;5076858;28;20039;-44
2024/04/03 00:06:05;;;;;;;7.80;4.10;;;9.10;99.90;;;;;;5071459;28;20047;-43
2024/04/03 00:08:31;;;;;;;6.75;3.90;;;9.10;99.90;;;;;;5076973;28;20601;-46
2024/04/03 00:10:56;;;;;;;5.03;3.78;;;9.10;99.90;;;;;;5074140;28;20292;-42
2024/04/03 00:13:22;;;;;;;7.57;4.47;;;9.10;99.90;;;;;;5073265;28;20399;-43
2024/04/03 00:15:49;;;;;;;5.35;4.05;;;9.20;99.90;;;;;;5074066;28;20055;-46
2024/04/03 00:18:15;;;;;;;7.05;3.70;;;9.20;99.90;;;;;;5073837;28;20036;-43
2024/04/03 00:20:41;;;;;;;5.82;3.90;;;9.20;99.90;;;;;;5073829;28;20051;-43
2024/04/03 00:23:07;;;;;;;5.85;4.00;;;9.20;99.90;;;;;;5079825;28;20095;-46
2024/04/03 00:25:32;;;;;;;5.28;3.90;;;9.20;99.90;;;;;;5077449;28;20039;-45
2024/04/03 00:27:58;;;;;;;8.63;4.10;;;9.10;99.90;;;;;;5072464;28;20044;-47
2024/04/03 00:30:25;;;;;;;6.20;3.90;;;9.10;99.90;;;;;;5070277;28;20048;-43
2024/04/03 00:32:51;;;;;;;5.30;3.72;;;9.10;99.90;;;;;;5076931;28;20428;-44
2024/04/03 00:35:17;;;;;;;5.38;3.90;;;9.00;99.90;;;;;;5067894;28;20047;-46
2024/04/03 00:37:42;;;;;;;5.93;3.95;;;9.00;99.90;;;;;;5069407;28;20058;-42
2024/04/03 00:40:10;;;;;;;5.00;3.90;;;9.00;99.90;;;;;;5068540;28;20043;-43
2024/04/03 00:42:35;;;;;;;4.60;4.10;;;9.00;99.90;;;;;;5074230;28;20036;-42
2024/04/03 00:45:02;;;;;;;5.93;4.10;;;9.00;99.90;;;;;;5070738;28;20546;-42
2024/04/03 00:47:28;;;;;;;7.18;4.35;;;9.10;99.90;;;;;;5072945;28;20221;-44
2024/04/03 00:49:55;;;;;;;8.70;4.18;;;9.00;99.90;;;;;;5075789;28;20613;-42
2024/04/03 00:52:21;;;;;;;4.53;3.92;;;9.10;99.90;;;;;;5077440;28;20043;-46
2024/04/03 00:54:48;;;;;;;10.02;4.30;;;9.10;99.90;;;;;;5070150;28;20036;-42
2024/04/03 00:57:14;;;;;;;6.35;4.10;;;9.10;99.90;;;;;;5069712;28;20044;-47
2024/04/03 00:59:41;;;;;;;8.52;4.97;;;9.20;99.90;;;;;;5070173;28;20044;-46
2024/04/03 01:02:08;;;;;;;6.88;4.30;;;9.30;99.90;;;;;;5068977;28;20036;-42
2024/04/03 01:04:35;;;;;;;5.35;3.83;;;9.30;99.90;;;;;;5071586;28;20063;-42
2024/04/03 01:07:06;;;;;;;6.25;4.25;;;9.30;99.90;;;;;;5064352;28;20048;-44
2024/04/03 01:09:33;;;;;;;;;;;9.30;99.90;;;;;;5070460;28;20059;-46
2024/04/03 01:11:59;;;;;;;5.50;4.07;;;9.30;99.90;;;;;;5051892;28;19924;-40
2024/04/03 01:14:25;;;;;;;5.22;3.90;;;9.30;99.90;;;;;;5069758;28;20040;-46
2024/04/03 01:16:51;;;;;;;10.13;4.20;;;9.30;99.90;;;;;;5051623;28;20050;-46
2024/04/03 01:19:17;;;;;;;5.57;3.95;;;9.30;99.90;;;;;;5064417;28;20063;-43
2024/04/03 01:21:42;;;;;;;6.60;4.25;;;9.30;99.90;;;;;;5060152;28;20048;-40
2024/04/03 01:24:09;;;;;;;5.10;3.78;;;9.30;99.90;;;;;;5064369;28;21224;-46
2024/04/03 01:26:35;;;;;;;6.40;3.85;;;9.40;99.90;;;;;;5064093;28;20044;-42
2024/04/03 01:29:01;;;;;;;6.95;4.13;;;9.30;99.90;;;;;;5063630;28;20410;-45
2024/04/03 01:31:27;;;;;;;6.72;3.75;;;9.30;99.90;;;;;;5062628;28;20135;-43
2024/04/03 01:33:52;;;;;;;6.72;4.00;;;9.30;99.90;;;;;;5067778;28;20035;-45
2024/04/03 01:36:18;;;;;;;8.30;4.30;;;9.30;99.90;;;;;;5068568;28;20312;-46
2024/04/03 01:38:45;;;;;;;6.65;4.07;;;9.30;99.90;;;;;;5069367;28;20096;-42
2024/04/03 01:41:13;;;;;;;5.63;4.15;;;9.30;99.90;;;;;;5070383;28;20109;-42
2024/04/03 01:43:39;;;;;;;7.55;4.20;;;9.30;99.90;;;;;;5068862;28;20044;-42
2024/04/03 01:46:05;;;;;;;6.90;4.10;;;9.30;99.90;;;;;;5067067;28;20039;-46
2024/04/03 01:48:31;;;;;;;7.32;4.18;;;9.40;99.90;;;;;;5070572;28;20084;-45
2024/04/03 01:50:57;;;;;;;5.63;4.10;;;9.30;99.90;;;;;;5068284;28;20513;-48
2024/04/03 01:53:23;;;;;;;5.75;3.90;;;9.30;99.90;;;;;;5076438;28;20152;-51
2024/04/03 01:55:56;;;;;;;5.72;4.55;;;9.20;99.90;;;;;;5069742;28;20443;-45
2024/04/03 01:58:23;;;;;;;6.40;3.88;;;9.20;99.90;;;;;;5073967;28;20057;-43
2024/04/03 02:00:50;;;;;;;5.55;4.32;;;9.20;99.90;;;;;;5065636;28;20052;-45
2024/04/03 02:03:17;;;;;;;8.90;4.38;;;9.10;99.90;;;;;;5068760;28;20520;-48
2024/04/03 02:05:44;;;;;;;8.63;4.57;;;9.20;99.90;;;;;;5068536;28;20062;-44
2024/04/03 02:08:11;;;;;;;5.88;4.50;;;9.10;99.90;;;;;;5063121;28;20061;-46
2024/04/03 02:10:37;;;;;;;5.68;4.32;;;9.10;99.90;;;;;;5070015;28;20067;-46
2024/04/03 02:13:03;;;;;;;5.82;4.50;;;9.10;99.90;;;;;;5051358;28;20576;-49
2024/04/03 02:15:30;;;;;;;5.78;4.22;;;9.00;99.90;;;;;;5076352;28;20465;-45
2024/04/03 02:17:56;;;;;;;7.15;4.32;;;8.90;99.90;;;;;;5070612;28;20048;-45
2024/04/03 02:20:22;;;;;;;4.97;4.40;;;8.80;99.90;;;;;;5066821;28;20044;-46
2024/04/03 02:22:48;;;;;;;6.43;4.53;;;8.80;99.90;;;;;;5071570;28;20066;-46
2024/04/03 02:25:14;;;;;;;5.97;4.28;;;8.80;99.90;;;;;;5067366;28;20036;-46
2024/04/03 02:27:40;;;;;;;6.43;4.50;;;8.80;99.90;;;;;;5068916;28;20040;-49
2024/04/03 02:30:07;;;;;;;6.55;4.35;;;8.70;99.90;;;;;;5070836;28;20046;-47
2024/04/03 02:32:33;;;;;;;8.38;4.85;;;8.70;99.90;;;;;;5067891;28;20106;-42
2024/04/03 02:34:59;;;;;;;9.82;5.25;;;8.80;99.90;;;;;;5071529;28;20055;-47
2024/04/03 02:37:25;;;;;;;8.82;4.30;;;8.80;99.90;;;;;;5075234;28;20180;-50
2024/04/03 02:39:51;;;;;;;5.90;4.07;;;8.80;99.90;;;;;;5069470;28;20484;-47
2024/04/03 02:42:17;;;;;;;6.75;4.10;;;8.80;99.90;;;;;;5058208;28;20059;-49
2024/04/03 02:44:43;;;;;;;10.02;4.80;;;8.90;99.90;;;;;;5066760;28;20066;-45
2024/04/03 02:47:09;;;;;;;7.10;4.00;;;8.90;99.90;;;;;;5067856;28;20036;-47
2024/04/03 02:49:35;;;;;;;4.90;4.30;;;8.90;99.90;;;;;;5069609;28;20036;-43
2024/04/03 02:52:01;;;;;;;5.65;4.82;;;8.80;99.90;;;;;;5065940;28;20041;-48
2024/04/03 02:54:27;;;;;;;6.47;4.40;;;8.90;99.90;;;;;;5067879;28;20051;-45
2024/04/03 02:56:54;;;;;;;7.65;4.45;;;8.80;99.90;;;;;;5064481;28;20163;-45
2024/04/03 02:59:20;;;;;;;6.30;4.30;;;8.80;99.90;;;;;;5066236;28;20088;-43
2024/04/03 03:01:45;;;;;;;6.35;4.80;;;8.90;99.90;;;;;;5069231;28;20048;-46
2024/04/03 03:04:11;;;;;;;5.78;4.28;;;8.90;99.90;;;;;;5068553;28;20124;-47
2024/04/03 03:06:37;;;;;;;6.50;4.18;;;8.90;99.90;;;;;;5069564;28;20048;-47
2024/04/03 03:09:04;;;;;;;5.25;4.50;;;8.90;99.90;;;;;;5069291;28;20074;-51
2024/04/03 03:11:30;;;;;;;5.40;4.35;;;9.00;99.90;;;;;;5069852;28;20032;-47
2024/04/03 03:13:56;;;;;;;7.45;4.20;;;8.90;99.90;;;;;;5074189;28;20050;-46
2024/04/03 03:16:23;;;;;;;7.18;4.20;;;8.90;99.90;;;;;;5072098;28;20052;-48
2024/04/03 03:18:49;;;;;;;8.85;4.40;;;9.00;99.90;;;;;;5057239;28;20070;-47
2024/04/03 03:21:15;;;;;;;7.07;4.88;;;9.00;99.90;;;;;;5071050;28;20123;-45
2024/04/03 03:23:41;;;;;;;6.38;4.03;;;9.00;99.90;;;;;;5069401;28;20136;-42
2024/04/03 03:26:07;;;;;;;5.68;4.10;;;9.00;99.90;;;;;;5064360;28;20374;-44
2024/04/03 03:28:33;;;;;;;5.25;4.35;;;9.10;99.90;;;;;;5069407;28;20048;-47
2024/04/03 03:30:59;;;;;;;5.10;4.00;;;9.00;99.90;;;;;;5066823;28;20409;-45
2024/04/03 03:33:25;;;;;;;6.38;4.35;;;9.00;99.90;;;;;;5071952;28;20437;-45
2024/04/03 03:35:53;;;;;;;5.90;4.50;;;9.10;99.90;;;;;;5064135;28;20048;-48
2024/04/03 03:38:19;;;;;;;4.93;4.40;;;9.00;99.90;;;;;;5066592;28;20055;-45
2024/04/03 03:40:45;;;;;;;7.13;4.60;;;9.10;99.90;;;;;;5068865;28;20055;-47
2024/04/03 03:43:12;;;;;;;4.82;3.80;;;9.10;99.90;;;;;;5072523;28;20055;-43
2024/04/03 03:45:46;;;;;;;5.97;4.50;;;9.10;99.90;;;;;;5072979;28;20047;-48
2024/04/03 03:48:12;;;;;;;5.75;4.43;;;9.10;99.90;;;;;;5070911;28;20055;-46
2024/04/03 03:53:25;;;;;;;6.18;4.32;;;9.20;99.90;;;;;;5073604;28;20070;-46
2024/04/03 03:55:54;;;;;;;6.13;4.20;;;9.10;99.90;;;;;;5072796;28;20060;-46
2024/04/03 03:58:20;;;;;;;6.00;4.57;;;9.10;99.90;;;;;;5075623;28;20500;-45
2024/04/03 04:00:46;;;;;;;5.50;4.45;;;9.10;99.90;;;;;;5073459;28;20048;-47
2024/04/03 04:03:13;;;;;;;9.18;4.78;;;9.10;99.90;;;;;;5070426;28;20052;-41
2024/04/03 04:05:39;;;;;;;5.78;4.95;;;9.10;99.90;;;;;;5072472;28;20048;-49
2024/04/03 04:08:05;;;;;;;6.22;5.13;;;9.10;99.90;;;;;;5067338;28;20113;-49
2024/04/03 04:10:31;;;;;;;5.60;4.75;;;9.10;99.90;;;;;;5085560;28;20066;-47
2024/04/03 04:12:57;;;;;;;7.47;4.55;;;9.00;99.90;;;;;;5075638;28;20112;-48
2024/04/03 04:15:26;;;;;;;5.55;4.32;;;9.00;99.90;;;;;;5068697;28;20060;-47
2024/04/03 04:17:52;;;;;;;10.38;4.78;;;9.10;99.90;;;;;;5072010;28;20061;-47
2024/04/03 04:20:19;;;;;;;7.82;4.28;;;9.10;99.90;;;;;;5072039;28;20173;-46
2024/04/03 04:22:45;;;;;;;5.15;4.30;;;9.00;99.90;;;;;;5078076;28;20790;-45
2024/04/03 04:25:12;;;;;;;6.07;4.93;;;9.10;99.90;;;;;;5076238;28;20063;-45
2024/04/03 04:27:38;;;;;;;5.43;4.47;;;9.00;99.90;;;;;;5074688;28;20036;-47
2024/04/03 04:30:07;;;;;;;5.75;4.80;;;9.00;99.90;;;;;;5072677;28;20044;-53
2024/04/03 04:32:33;;;;;;;7.00;4.70;;;9.00;99.90;;;;;;5073609;28;20085;-48
2024/04/03 04:34:59;;;;;;;5.32;4.10;;;9.00;99.90;;;;;;5070345;28;20036;-44
2024/04/03 04:37:26;;;;;;;6.07;5.10;;;9.00;99.90;;;;;;5067928;28;20090;-44
2024/04/03 04:39:52;;;;;;;6.85;5.13;;;9.00;99.90;;;;;;5072571;28;20059;-49
2024/04/03 04:42:19;;;;;;;6.22;4.38;;;8.90;99.90;;;;;;5067581;28;20041;-45
2024/04/03 04:44:45;;;;;;;5.60;4.05;;;9.00;99.90;;;;;;5072906;28;20043;-43
2024/04/03 04:47:11;;;;;;;5.35;4.35;;;8.90;99.90;;;;;;5071667;28;20113;-47
2024/04/03 04:49:37;;;;;;;7.53;4.72;;;8.90;99.90;;;;;;5072335;28;20481;-41
2024/04/03 04:52:04;;;;;;;7.05;5.32;;;8.90;99.90;;;;;;5071089;28;20036;-47
2024/04/03 04:54:30;;;;;;;7.80;4.45;;;8.90;99.90;;;;;;5069822;28;20055;-46
2024/04/03 04:56:56;;;;;;;7.35;4.38;;;8.90;99.90;;;;;;5069797;28;20063;-48
2024/04/03 04:59:22;;;;;;;7.25;4.60;;;8.80;99.90;;;;;;5069596;28;20052;-46
2024/04/03 05:01:48;;;;;;;7.57;4.30;;;8.80;99.90;;;;;;5066291;28;20396;-44
2024/04/03 05:04:14;;;;;;;8.23;4.20;;;8.80;99.90;;;;;;5075529;28;20047;-45
2024/04/03 05:06:39;;;;;;;8.25;4.55;;;8.80;99.90;;;;;;5072598;28;20040;-45
2024/04/03 05:09:06;;;;;;;5.22;4.07;;;8.80;99.90;;;;;;5071919;28;20043;-45
2024/04/03 05:11:33;;;;;;;7.63;4.68;;;8.90;99.90;;;;;;5071569;28;20058;-43
2024/04/03 05:13:59;;;;;;;5.10;3.92;;;8.90;99.90;;;;;;5071868;28;20052;-47
2024/04/03 05:16:25;;;;;;;8.40;5.38;;;9.00;99.90;;;;;;5069754;28;20489;-50
2024/04/03 05:18:52;;;;;;;5.28;4.38;;;9.10;99.90;;;;;;5070249;28;20044;-48
2024/04/03 05:21:22;;;;;;;5.95;4.07;;;9.10;99.90;;;;;;5075802;28;20112;-46
2024/04/03 05:23:48;;;;;;;7.30;4.32;;;9.20;99.90;;;;;;5075057;28;20056;-44
2024/04/03 05:26:16;;;;;;;5.05;3.60;;;9.30;99.90;;;;;;5073007;28;20505;-49
2024/04/03 05:28:42;;;;;;;7.32;4.30;;;9.50;99.90;;;;;;5070759;28;20078;-48
2024/04/03 05:31:17;;;;;;;6.60;4.10;;;9.50;99.90;;;;;;5072730;28;20043;-47
2024/04/03 05:33:43;;;;;;;6.97;4.70;;;9.50;99.90;;;;;;5075348;28;20048;-48
2024/04/03 05:36:10;;;;;;;7.70;4.95;;;9.50;99.90;;;;;;5072707;28;20048;-46
2024/04/03 05:38:37;;;;;;;6.90;4.07;;;9.60;99.90;;;;;;5074555;28;20169;-48
2024/04/03 05:41:03;;;;;;;9.20;4.85;;;9.60;99.90;;;;;;5074406;28;20044;-44
2024/04/03 05:43:30;;;;;;;7.88;3.80;;;9.70;99.90;;;;;;5073809;28;20102;-42
2024/04/03 05:45:56;;;;;;;6.95;3.85;;;9.70;99.90;;;;;;5071215;28;20512;-45
2024/04/03 05:48:24;;;;;;;5.95;4.35;;;9.70;99.90;;;;;;5076981;28;20055;-47
2024/04/03 05:51:07;;;;;;;7.80;4.32;;;9.80;99.90;;;;;;5076687;28;20062;-43
2024/04/03 05:53:34;;;;;;;5.00;4.28;;;9.90;99.90;;;;;;5075514;28;20036;-47
2024/04/03 05:56:02;;;;;;;6.95;4.47;;;9.90;99.90;;;;;;5072862;28;20214;-44
2024/04/03 05:58:29;;;;;;;8.48;4.50;;;10.00;99.90;;;;;;5074507;28;20047;-46
2024/04/03 06:00:58;;;;;;;10.30;5.30;;;10.00;99.90;;;;;;5074320;28;20343;-46
2024/04/03 06:03:24;;;;;;;8.90;5.47;;;10.00;99.90;;;;;;5077999;28;20040;-49
2024/04/03 06:05:54;;;;;;;8.07;5.07;;;10.00;99.90;;;;;;5080160;28;20512;-41
2024/04/03 06:08:21;;;;;;;9.73;5.25;;;10.10;99.90;;;;;;5072308;28;20048;-46
2024/04/03 06:10:48;;;;;;;6.25;4.75;;;10.00;99.90;;;;;;5071761;28;20055;-44
2024/04/03 06:13:14;;;;;;;8.48;4.47;;;10.10;99.90;;;;;;5077763;28;20044;-48
2024/04/03 06:15:40;;;;;;;13.25;5.22;;;10.10;99.90;;;;;;5071170;28;20500;-43
2024/04/03 06:18:06;;;;;;;8.63;5.20;;;10.20;99.90;;;;;;5069702;28;20067;-46
2024/04/03 06:20:32;;;;;;;8.23;5.18;;;10.20;99.90;;;;;;5071272;28;20048;-47
2024/04/03 06:22:59;;;;;;;9.20;6.28;;;10.30;99.90;;;;;;5070437;28;20051;-50
2024/04/03 06:25:25;;;;;;;8.50;5.80;;;10.40;99.90;;;;;;5070575;28;20040;-46
2024/04/03 06:27:53;;;;;;;7.07;4.88;;;10.50;99.90;;;;;;5072165;28;20055;-49
2024/04/03 06:30:20;;;;;;;10.80;5.50;;;10.60;99.90;;;;;;5079190;28;20036;-50
2024/04/03 06:32:46;;;;;;;7.28;4.63;;;10.70;99.90;;;;;;5075497;28;20150;-42
2024/04/03 06:35:13;;;;;;;9.25;5.68;;;10.70;99.90;;;;;;5073081;28;20307;-45
2024/04/03 06:37:40;;;;;;;13.60;5.10;;;10.80;99.90;;;;;;5072422;28;20096;-46
2024/04/03 06:40:08;;;;;;;8.35;5.18;;;10.70;99.90;;;;;;5072495;28;20493;-45
2024/04/03 06:42:34;;;;;;;16.55;9.55;;;10.70;99.90;;;;;;5078034;28;20374;-45
2024/04/03 06:45:00;;;;;;;9.32;5.45;;;10.70;99.90;;;;;;5074026;28;20115;-45
2024/04/03 06:47:27;;;;;;;6.75;4.70;;;10.60;99.90;;;;;;5078015;28;20044;-46
2024/04/03 06:49:55;;;;;;;9.43;4.57;;;10.70;99.90;;;;;;5078417;28;20051;-43
2024/04/03 06:52:22;;;;;;;5.72;4.32;;;10.70;99.90;;;;;;5077597;28;20101;-46
2024/04/03 06:54:49;;;;;;;5.38;4.43;;;10.80;99.90;;;;;;5081999;28;20052;-49
2024/04/03 06:57:15;;;;;;;7.95;4.20;;;10.80;99.90;;;;;;5075127;28;20044;-46
2024/04/03 06:59:41;;;;;;;6.30;4.57;;;10.80;99.90;;;;;;5069797;28;20052;-47
2024/04/03 07:02:07;;;;;;;5.97;4.40;;;10.90;99.90;;;;;;5077856;28;20526;-47
2024/04/03 07:04:33;;;;;;;6.10;4.30;;;10.90;99.90;;;;;;5078494;28;20122;-47
2024/04/03 07:07:02;;;;;;;8.82;4.20;;;11.00;99.90;;;;;;5076235;28;20073;-44
2024/04/03 07:09:28;;;;;;;6.93;4.35;;;11.20;99.90;;;;;;5078491;28;20047;-43
2024/04/03 07:11:54;;;;;;;5.07;4.50;;;11.30;99.90;;;;;;5076734;28;20495;-46
2024/04/03 07:14:20;;;;;;;9.07;4.95;;;11.40;99.90;;;;;;5076872;28;20071;-46
2024/04/03 07:16:46;;;;;;;8.45;4.60;;;11.40;99.90;;;;;;5079275;28;20123;-48
2024/04/03 07:19:12;;;;;;;7.05;5.00;;;11.50;99.90;;;;;;5078958;28;20051;-49
2024/04/03 07:21:42;;;;;;;7.18;4.68;;;11.50;99.90;;;;;;5078394;28;20040;-47
2024/04/03 07:24:09;;;;;;;6.95;4.60;;;11.60;99.90;;;;;;5078603;28;20116;-47
2024/04/03 07:26:34;;;;;;;8.13;5.30;;;11.70;99.90;;;;;;5076700;28;20325;-44
2024/04/03 07:29:00;;;;;;;8.50;5.47;;;11.90;99.90;;;;;;5074328;28;20070;-46
2024/04/03 07:31:26;;;;;;;6.88;4.72;;;11.90;99.90;;;;;;5073836;28;20117;-42
2024/04/03 07:33:53;;;;;;;9.68;4.85;;;12.00;99.90;;;;;;5090575;28;20603;-46
2024/04/03 07:36:21;;;;;;;7.10;4.88;;;12.20;99.90;;;;;;5070844;28;20048;-44
2024/04/03 07:38:48;;;;;;;5.68;4.95;;;12.40;99.90;;;;;;5073555;28;20051;-46
2024/04/03 07:41:29;;;;;;;9.68;4.57;;;12.50;99.90;;;;;;5068630;28;20048;-46
2024/04/03 07:43:55;;;;;;;6.38;4.32;;;12.70;99.90;;;;;;5073598;28;20117;-44
2024/04/03 07:46:21;;;;;;;10.43;4.97;;;12.60;99.90;;;;;;5071349;28;20109;-46
2024/04/03 07:48:48;;;;;;;7.10;4.82;;;12.70;99.90;;;;;;5070290;28;20036;-47
2024/04/03 07:51:14;;;;;;;6.03;4.40;;;12.70;99.90;;;;;;5073598;28;20127;-47
2024/04/03 07:53:41;;;;;;;7.72;4.63;;;12.70;99.90;;;;;;5074250;28;20036;-45
2024/04/03 07:56:07;;;;;;;6.65;4.50;;;12.90;99.90;;;;;;5074556;28;20086;-45
2024/04/03 07:58:34;;;;;;;7.35;4.80;;;12.80;99.90;;;;;;5073731;28;20048;-44
2024/04/03 08:01:01;;;;;;;8.45;5.05;;;12.90;99.90;;;;;;5074021;28;20044;-48
2024/04/03 08:03:28;;;;;;;10.13;4.82;;;13.00;99.90;;;;;;5074323;28;20044;-46
2024/04/03 08:05:54;;;;;;;13.00;7.82;;;13.00;99.90;;;;;;5070933;28;20051;-49
2024/04/03 08:08:24;;;;;;;13.82;5.78;;;13.20;99.90;;;;;;5072506;28;20055;-50
2024/04/03 08:10:50;;;;;;;8.23;5.05;;;13.00;99.90;;;;;;5072279;28;20048;-47
2024/04/03 08:13:16;;;;;;;4.70;4.22;;;13.00;99.90;;;;;;5071743;28;20596;-48
2024/04/03 08:15:42;;;;;;;7.22;4.40;;;13.10;99.90;;;;;;5074215;28;20377;-45
2024/04/03 08:18:08;;;;;;;5.88;4.72;;;13.20;99.90;;;;;;5070967;28;20051;-47
2024/04/03 08:20:34;;;;;;;6.57;4.80;;;13.20;99.90;;;;;;5072473;28;20052;-48
2024/04/03 08:23:00;;;;;;;5.88;4.13;;;13.30;99.90;;;;;;5068986;28;20047;-51
2024/04/03 08:25:26;;;;;;;7.10;4.55;;;13.40;99.90;;;;;;5069453;28;20040;-46
2024/04/03 08:27:54;;;;;;;5.53;4.38;;;13.40;99.90;;;;;;5072210;28;20051;-46
2024/04/03 08:30:21;;;;;;;5.85;4.25;;;13.30;99.90;;;;;;5068597;28;20047;-45
2024/04/03 08:32:47;;;;;;;8.73;4.47;;;13.30;99.90;;;;;;5070819;28;20066;-45
2024/04/03 08:35:13;;;;;;;5.30;4.47;;;13.20;99.90;;;;;;5068515;28;20105;-45
2024/04/03 08:37:38;;;;;;;6.35;4.47;;;13.30;99.90;;;;;;5055848;28;20052;-45
2024/04/03 08:40:12;;;;;;;8.32;5.53;;;13.20;99.90;;;;;;5071707;28;20052;-46
2024/04/03 08:42:38;;;;;;;8.52;5.13;;;13.30;99.90;;;;;;5068225;28;20416;-46
2024/04/03 08:45:06;;;;;;;14.50;10.65;;;13.20;99.90;;;;;;5075447;28;20047;-46
2024/04/03 08:47:33;;;;;;;9.27;5.10;;;13.30;99.90;;;;;;5068591;28;20051;-45
2024/04/03 08:49:59;;;;;;;7.28;5.55;;;13.40;99.90;;;;;;5072891;28;20036;-45
2024/04/03 08:52:28;;;;;;;9.00;5.30;;;13.50;99.90;;;;;;5072986;28;20090;-47
2024/04/03 08:55:00;;;;;;;8.05;5.00;;;13.50;99.90;;;;;;5073575;28;20036;-48
2024/04/03 08:57:27;;;;;;;7.72;4.75;;;13.40;99.90;;;;;;5071840;28;20044;-44
2024/04/03 08:59:53;;;;;;;7.53;4.80;;;13.40;99.90;;;;;;5074657;28;20070;-49
2024/04/03 09:02:19;;;;;;;6.28;4.63;;;13.40;99.90;;;;;;5071335;28;20056;-49
2024/04/03 09:04:45;;;;;;;7.50;4.50;;;13.70;99.90;;;;;;5072872;28;20044;-45
2024/04/03 09:07:18;;;;;;;7.03;4.97;;;13.70;99.90;;;;;;5066262;28;20113;-47
2024/04/03 09:09:44;;;;;;;8.75;4.70;;;13.80;99.90;;;;;;5070658;28;20047;-43
2024/04/03 09:12:10;;;;;;;6.35;4.15;;;13.90;99.90;;;;;;5070954;28;20035;-46
2024/04/03 09:14:38;;;;;;;7.63;4.50;;;14.00;99.90;;;;;;5074075;28;20048;-45
2024/04/03 09:17:09;;;;;;;5.53;4.45;;;13.70;99.90;;;;;;5069123;28;20520;-45
2024/04/03 09:19:35;;;;;;;8.73;4.32;;;13.80;99.90;;;;;;5062584;28;20063;-45
2024/04/03 09:22:02;;;;;;;8.43;4.65;;;13.90;99.90;;;;;;5075449;28;20089;-47
2024/04/03 09:24:36;;;;;;;8.25;4.82;;;13.80;99.90;;;;;;5068648;28;20063;-46
2024/04/03 09:27:09;;;;;;;10.40;4.55;;;13.90;99.90;;;;;;5070626;28;20531;-43
2024/04/03 09:29:35;;;;;;;7.47;4.80;;;13.90;99.90;;;;;;5070557;28;20535;-48
2024/04/03 09:32:05;;;;;;;4.85;4.45;;;14.00;99.90;;;;;;5070754;28;20451;-51
2024/04/03 09:34:31;;;;;;;6.75;4.43;;;14.30;99.90;;;;;;5063348;28;20044;-45
2024/04/03 09:36:59;;;;;;;4.93;4.47;;;14.00;99.90;;;;;;5070023;28;20128;-47
2024/04/03 09:39:26;;;;;;;6.50;4.43;;;14.00;99.90;;;;;;5069875;28;20096;-48
2024/04/03 09:42:01;;;;;;;4.90;4.47;;;14.00;99.90;;;;;;5072163;28;20075;-49
2024/04/03 09:44:31;;;;;;;5.05;4.50;;;13.90;99.90;;;;;;5069066;28;20063;-48
2024/04/03 09:47:05;;;;;;;4.60;4.20;;;13.90;99.90;;;;;;5070860;28;20069;-48
2024/04/03 09:49:53;;;;;;;8.02;4.47;;;14.00;99.90;;;;;;5068588;28;20061;-50
2024/04/03 09:52:19;;;;;;;4.85;4.38;;;14.20;99.90;;;;;;5067396;28;20097;-50
2024/04/03 09:54:48;;;;;;;8.32;4.90;;;14.30;99.90;;;;;;5069057;28;20626;-51
2024/04/03 09:57:14;;;;;;;7.35;4.13;;;14.20;99.90;;;;;;5076892;28;20048;-44
2024/04/03 09:59:41;;;;;;;5.90;4.50;;;14.20;99.90;;;;;;5053994;28;20044;-45
2024/04/03 10:02:10;;;;;;;4.82;4.40;;;14.00;99.90;;;;;;5067547;28;20519;-43
2024/04/03 10:04:38;;;;;;;6.38;4.60;;;13.70;99.90;;;;;;5071186;28;20068;-43
2024/04/03 10:07:14;;;;;;;4.65;4.20;;;13.90;99.90;;;;;;5068845;28;20047;-50
2024/04/03 10:09:40;;;;;;;5.18;4.43;;;14.00;99.90;;;;;;5067307;28;20246;-50
2024/04/03 10:12:14;;;;;;;5.40;4.47;;;14.10;99.90;;;;;;5069982;28;20047;-47
2024/04/03 10:14:41;;;;;;;4.47;3.80;;;14.40;99.90;;;;;;5066782;28;20043;-48
2024/04/03 10:17:15;;;;;;;6.45;4.20;;;14.30;99.90;;;;;;5069615;28;20443;-46
2024/04/03 10:19:42;;;;;;;4.60;4.20;;;14.70;99.90;;;;;;5070138;28;20076;-46
2024/04/03 10:22:14;;;;;;;4.68;4.10;;;14.80;99.90;;;;;;5069671;28;20039;-46
2024/04/03 10:24:48;;;;;;;;;;;14.60;99.90;;;;;;5069126;28;20048;-50
2024/04/03 10:27:14;;;;;;;5.28;4.30;;;14.60;99.90;;;;;;5070775;28;19924;-47
2024/04/03 10:29:40;;;;;;;8.82;4.32;;;14.70;99.90;;;;;;5069133;28;20040;-45
2024/04/03 10:32:06;;;;;;;4.75;4.20;;;14.90;99.90;;;;;;5070440;28;20074;-48
2024/04/03 10:34:33;;;;;;;6.90;4.47;;;15.10;99.90;;;;;;5068758;28;20289;-44
2024/04/03 10:36:59;;;;;;;5.28;4.40;;;15.10;99.90;;;;;;5070566;28;20054;-51
2024/04/03 10:39:26;;;;;;;6.43;4.82;;;15.20;99.90;;;;;;5070655;28;20048;-51
2024/04/03 10:41:58;;;;;;;6.32;4.45;;;15.60;99.90;;;;;;5068740;28;20683;-46
2024/04/03 10:44:25;;;;;;;4.50;4.10;;;15.60;99.90;;;;;;5073898;28;20085;-46
2024/04/03 10:46:51;;;;;;;7.45;4.30;;;15.50;99.90;;;;;;5072198;28;20438;-47
2024/04/03 10:49:18;;;;;;;5.55;4.10;;;15.30;99.90;;;;;;5066531;28;20209;-47
2024/04/03 10:51:45;;;;;;;4.40;4.00;;;14.90;99.90;;;;;;5075624;28;20040;-45
2024/04/03 10:54:12;;;;;;;3.97;3.50;;;14.90;99.90;;;;;;5070451;28;20126;-49
2024/04/03 10:56:38;;;;;;;4.00;3.60;;;14.90;99.90;;;;;;5073047;28;20113;-46
2024/04/03 10:59:04;;;;;;;4.45;4.05;;;15.00;99.90;;;;;;5067154;28;20044;-47
2024/04/03 11:01:31;;;;;;;4.15;3.40;;;14.90;99.90;;;;;;5071302;28;20051;-43
2024/04/03 11:03:58;;;;;;;5.57;3.95;;;14.60;99.90;;;;;;5071105;28;20108;-45
2024/04/03 11:06:25;;;;;;;4.63;3.60;;;14.70;99.90;;;;;;5072099;28;20040;-44
2024/04/03 11:08:52;;;;;;;5.53;3.83;;;14.90;99.90;;;;;;5073838;28;20128;-50
2024/04/03 11:11:19;;;;;;;4.63;3.88;;;14.60;99.90;;;;;;5070693;28;20581;-46
2024/04/03 11:13:47;;;;;;;5.03;3.20;;;14.60;99.90;;;;;;5088155;28;20070;-50
2024/04/03 11:16:13;;;;;;;5.70;3.83;;;14.60;99.90;;;;;;5073014;28;20501;-49
2024/04/03 11:18:41;;;;;;;4.50;4.10;;;15.00;99.90;;;;;;5074299;28;20532;-43
2024/04/03 11:21:10;;;;;;;6.15;4.28;;;15.00;99.90;;;;;;5083308;28;20040;-48
2024/04/03 11:23:40;;;;;;;4.72;4.00;;;14.70;99.90;;;;;;5075786;28;20040;-49
2024/04/03 11:26:08;;;;;;;4.38;3.97;;;14.70;99.90;;;;;;5072310;28;20078;-44
2024/04/03 11:28:35;;;;;;;4.50;4.10;;;14.50;99.90;;;;;;5071015;28;20552;-45
2024/04/03 11:31:01;;;;;;;4.53;4.00;;;14.70;99.90;;;;;;5074256;28;20615;-48
2024/04/03 11:33:31;;;;;;;4.38;3.92;;;14.80;99.90;;;;;;5071446;28;20036;-47
2024/04/03 11:35:58;;;;;;;4.53;3.70;;;15.00;99.90;;;;;;5086257;28;20097;-44
2024/04/03 11:38:25;;;;;;;5.25;4.28;;;15.20;99.90;;;;;;5072302;28;20048;-47
2024/04/03 11:40:51;;;;;;;5.20;4.00;;;15.50;99.90;;;;;;5074405;28;20048;-46
2024/04/03 11:43:17;;;;;;;4.30;3.90;;;15.60;99.90;;;;;;5055615;28;20113;-45
2024/04/03 11:45:44;;;;;;;4.20;3.80;;;15.60;99.90;;;;;;5077358;28;20040;-45
2024/04/03 11:48:10;;;;;;;4.75;3.85;;;15.50;99.90;;;;;;5058520;28;20454;-44
2024/04/03 11:50:36;;;;;;;4.40;4.00;;;15.70;99.90;;;;;;5072223;28;20059;-44
2024/04/03 11:53:02;;;;;;;6.22;4.13;;;15.90;99.90;;;;;;5071488;28;20124;-48
2024/04/03 11:55:28;;;;;;;4.40;4.00;;;16.30;99.90;;;;;;5071626;28;20288;-46
2024/04/03 11:57:54;;;;;;;4.30;3.90;;;16.90;99.90;;;;;;5071863;28;20326;-45
2024/04/03 12:00:20;;;;;;;4.40;4.00;;;17.00;99.90;;;;;;5071255;28;20036;-45
2024/04/03 12:02:46;;;;;;;4.60;4.20;;;17.30;99.90;;;;;;5071965;28;20068;-47
2024/04/03 12:05:12;;;;;;;4.53;4.13;;;17.50;99.90;;;;;;5069202;28;20127;-47
2024/04/03 12:07:38;;;;;;;5.35;4.20;;;17.90;99.90;;;;;;5072500;28;20524;-51
2024/04/03 12:10:07;;;;;;;4.30;3.90;;;18.40;99.90;;;;;;5071356;28;20028;-46
2024/04/03 12:12:34;;;;;;;5.05;4.25;;;18.60;99.90;;;;;;5072760;28;20066;-46
2024/04/03 12:15:00;;;;;;;4.32;3.92;;;19.00;99.90;;;;;;5074826;28;20055;-43
2024/04/03 12:17:27;;;;;;;4.82;4.25;;;19.30;99.90;;;;;;5077638;28;20039;-43
2024/04/03 12:22:27;;;;;;;8.90;4.90;;;19.70;99.90;;;;;;5056199;28;20420;-44
2024/04/03 12:24:53;;;;;;;4.53;4.13;;;19.40;99.90;;;;;;5071402;28;20047;-46
2024/04/03 12:27:19;;;;;;;4.43;4.03;;;19.50;99.90;;;;;;5072462;28;20127;-45
2024/04/03 12:29:45;;;;;;;6.43;4.50;;;19.70;99.90;;;;;;5067202;28;20389;-48
2024/04/03 12:32:11;;;;;;;4.90;4.30;;;19.70;99.90;;;;;;5072730;28;20054;-45
2024/04/03 12:34:37;;;;;;;5.13;4.63;;;20.30;99.90;;;;;;5072170;28;20048;-47
2024/04/03 12:37:03;;;;;;;5.15;4.30;;;21.00;99.90;;;;;;5069427;28;20044;-42
2024/04/03 12:39:29;;;;;;;5.10;4.60;;;21.70;99.90;;;;;;5087537;28;20176;-49
2024/04/03 12:41:56;;;;;;;5.03;4.53;;;20.80;99.90;;;;;;5073292;28;20062;-47
2024/04/03 12:44:22;;;;;;;5.15;4.65;;;21.80;99.50;;;;;;5070205;28;20043;-47
2024/04/03 12:46:47;;;;;;;4.60;4.20;;;22.80;97.30;;;;;;5073363;28;20036;-46
2024/04/03 12:49:22;;;;;;;4.65;4.25;;;22.30;95.00;;;;;;5069117;28;20077;-45
2024/04/03 12:51:49;;;;;;;4.60;4.20;;;21.60;94.30;;;;;;5072793;28;20470;-42
2024/04/03 12:54:18;;;;;;;4.50;4.10;;;21.00;94.70;;;;;;5066090;28;20044;-46